createdAt,value
2022-09-04T00:01:29.504Z,96.90
2022-09-04T00:04:01.528Z,97.20
2022-09-04T00:06:33.236Z,96.90
2022-09-04T00:09:12.205Z,97.00
2022-09-04T00:11:47.982Z,97.10
2022-09-04T00:14:19.238Z,97.20
2022-09-04T00:16:49.111Z,97.20
2022-09-04T00:19:22.531Z,97.30
2022-09-04T00:21:53.772Z,97.30
2022-09-04T00:24:20.115Z,97.40
2022-09-04T00:26:54.487Z,97.40
2022-09-04T00:29:27.750Z,97.80
2022-09-04T00:31:58.311Z,97.50
2022-09-04T00:34:47.353Z,98.10
2022-09-04T00:37:16.687Z,98.10
2022-09-04T00:39:47.697Z,97.90
2022-09-04T00:42:36.279Z,97.90
2022-09-04T00:45:16.939Z,97.90
2022-09-04T00:48:18.039Z,98.10
2022-09-04T00:51:04.618Z,98.40
2022-09-04T00:54:11.509Z,98.20
2022-09-04T00:56:56.936Z,98.50
2022-09-04T00:59:41.503Z,98.30
2022-09-04T01:02:19.754Z,98.50
2022-09-04T01:04:51.834Z,98.60
2022-09-04T01:07:38.446Z,99.00
2022-09-04T01:10:45.267Z,98.80
2022-09-04T01:13:16.831Z,99.20
2022-09-04T01:15:48.287Z,99.40
2022-09-04T01:18:18.561Z,99.00
2022-09-04T01:21:01.758Z,99.20
2022-09-04T01:24:01.552Z,99.20
2022-09-04T01:26:34.512Z,99.20
2022-09-04T01:29:14.725Z,99.20
2022-09-04T01:31:45.967Z,99.20
2022-09-04T01:34:30.441Z,99.70
2022-09-04T01:37:01.967Z,99.20
2022-09-04T01:39:30.261Z,99.60
2022-09-04T01:42:02.732Z,99.50
2022-09-04T01:44:26.983Z,99.40
2022-09-04T01:47:12.690Z,99.60
2022-09-04T01:49:39.827Z,99.40
2022-09-04T01:52:16.143Z,99.40
2022-09-04T01:54:57.116Z,99.50
2022-09-04T01:57:41.465Z,99.90
2022-09-04T02:00:11.082Z,99.80
2022-09-04T02:02:56.120Z,99.50
2022-09-04T02:05:31.055Z,99.80
2022-09-04T02:08:06.301Z,99.70
2022-09-04T02:10:38.936Z,99.80
2022-09-04T02:13:16.230Z,99.90
2022-09-04T02:15:50.465Z,99.70
2022-09-04T02:18:31.519Z,99.90
2022-09-04T02:21:09.598Z,99.90
2022-09-04T02:23:41.318Z,99.90
2022-09-04T02:26:15.348Z,99.90
2022-09-04T02:28:56.144Z,99.90
2022-09-04T02:31:30.689Z,99.90
2022-09-04T02:34:04.648Z,99.90
2022-09-04T02:36:36.453Z,99.90
2022-09-04T02:39:09.777Z,99.90
2022-09-04T02:41:41.871Z,99.90
2022-09-04T02:44:27.272Z,99.90
2022-09-04T02:47:05.054Z,99.90
2022-09-04T02:49:39.171Z,99.90
2022-09-04T02:52:20.467Z,99.90
2022-09-04T02:55:05.680Z,99.90
2022-09-04T02:57:41.895Z,99.90
2022-09-04T03:00:18.222Z,99.90
2022-09-04T03:02:53.071Z,99.90
2022-09-04T03:05:22.928Z,99.90
2022-09-04T03:07:54.627Z,99.90
2022-09-04T03:10:20.810Z,99.90
2022-09-04T03:12:52.723Z,99.90
2022-09-04T03:15:27.397Z,99.90
2022-09-04T03:18:01.860Z,99.90
2022-09-04T03:20:29.046Z,99.90
2022-09-04T03:23:01.122Z,99.90
2022-09-04T03:26:19.691Z,99.90
2022-09-04T03:29:03.159Z,99.90
2022-09-04T03:31:36.286Z,99.90
2022-09-04T03:34:33.252Z,99.90
2022-09-04T03:37:28.948Z,99.90
2022-09-04T03:40:12.260Z,99.90
2022-09-04T03:42:51.906Z,99.90
2022-09-04T03:45:26.494Z,99.90
2022-09-04T03:48:15.559Z,99.90
2022-09-04T03:50:51.944Z,99.90
2022-09-04T03:53:26.395Z,99.90
2022-09-04T03:56:17.319Z,99.90
2022-09-04T03:58:52.268Z,99.90
2022-09-04T04:01:27.405Z,99.90
2022-09-04T04:04:37.272Z,99.90
2022-09-04T04:07:08.634Z,99.90
2022-09-04T04:09:52.211Z,99.90
2022-09-04T04:12:59.522Z,99.90
2022-09-04T04:15:35.114Z,99.90
2022-09-04T04:18:23.221Z,99.90
2022-09-04T04:20:58.011Z,99.90
2022-09-04T04:24:04.953Z,99.90
2022-09-04T04:26:42.248Z,99.90
2022-09-04T04:29:39.781Z,99.90
2022-09-04T04:32:26.609Z,99.90
2022-09-04T04:35:11.425Z,99.90
2022-09-04T04:37:51.911Z,99.90
2022-09-04T04:40:28.799Z,99.90
2022-09-04T04:43:01.830Z,99.90
2022-09-04T04:45:51.580Z,99.90
2022-09-04T04:49:05.492Z,99.90
2022-09-04T04:51:58.315Z,99.90
2022-09-04T04:54:43.540Z,99.90
2022-09-04T04:57:20.252Z,99.90
2022-09-04T04:59:55.883Z,99.90
2022-09-04T05:02:28.668Z,99.90
2022-09-04T05:05:02.727Z,99.90
2022-09-04T05:07:37.379Z,99.90
2022-09-04T05:10:16.011Z,99.90
2022-09-04T05:13:03.544Z,99.90
2022-09-04T05:15:53.005Z,99.90
2022-09-04T05:18:32.534Z,99.90
2022-09-04T05:21:01.273Z,99.90
2022-09-04T05:23:38.503Z,99.90
2022-09-04T05:26:13.331Z,99.90
2022-09-04T05:28:50.057Z,99.90
2022-09-04T05:31:23.534Z,99.90
2022-09-04T05:33:59.807Z,99.90
2022-09-04T05:36:36.739Z,99.90
2022-09-04T05:39:10.685Z,99.90
2022-09-04T05:41:51.975Z,99.90
2022-09-04T05:44:36.223Z,99.90
2022-09-04T05:47:14.674Z,99.90
2022-09-04T05:50:17.211Z,99.90
2022-09-04T05:53:36.382Z,99.90
2022-09-04T05:56:22.391Z,99.90
2022-09-04T05:59:13.446Z,99.90
2022-09-04T06:02:15.845Z,99.90
2022-09-04T06:05:07.318Z,99.90
2022-09-04T06:07:38.169Z,99.90
2022-09-04T06:10:08.835Z,99.90
2022-09-04T06:13:04.604Z,99.90
2022-09-04T06:15:38.811Z,99.90
2022-09-04T06:18:46.850Z,99.90
2022-09-04T06:21:48.035Z,99.90
2022-09-04T06:24:34.437Z,99.90
2022-09-04T06:27:26.348Z,99.90
2022-09-04T06:30:07.566Z,99.70
2022-09-04T06:33:06.195Z,99.90
2022-09-04T06:36:21.786Z,99.80
2022-09-04T06:39:09.055Z,97.60
2022-09-04T06:42:05.585Z,98.80
2022-09-04T06:44:46.868Z,96.40
2022-09-04T06:47:22.932Z,96.30
2022-09-04T06:50:11.646Z,97.00
2022-09-04T06:52:46.134Z,95.80
2022-09-04T06:55:21.859Z,95.90
2022-09-04T06:58:43.115Z,95.50
2022-09-04T07:01:11.811Z,96.40
2022-09-04T07:03:58.466Z,97.60
2022-09-04T07:06:33.560Z,96.00
2022-09-04T07:09:10.352Z,98.10
2022-09-04T07:12:02.479Z,98.30
2022-09-04T07:14:50.607Z,95.70
2022-09-04T07:17:24.861Z,96.70
2022-09-04T07:20:14.731Z,97.30
2022-09-04T07:23:16.153Z,97.70
2022-09-04T07:25:49.635Z,98.00
2022-09-04T07:28:36.483Z,97.80
2022-09-04T07:31:06.143Z,98.60
2022-09-04T07:33:40.296Z,98.60
2022-09-04T07:36:14.996Z,99.20
2022-09-04T07:38:50.659Z,98.80
2022-09-04T07:41:23.255Z,99.40
2022-09-04T07:43:57.095Z,99.20
2022-09-04T07:46:30.412Z,99.50
2022-09-04T07:49:10.232Z,99.00
2022-09-04T07:51:38.765Z,99.30
2022-09-04T07:54:46.507Z,99.50
2022-09-04T07:57:43.520Z,99.70
2022-09-04T08:00:13.541Z,99.60
2022-09-04T08:03:17.010Z,99.70
2022-09-04T08:05:49.247Z,99.80
2022-09-04T08:09:03.499Z,99.90
2022-09-04T08:11:59.539Z,99.60
2022-09-04T08:14:42.883Z,99.90
2022-09-04T08:17:53.987Z,99.90
2022-09-04T08:20:44.509Z,99.90
2022-09-04T08:23:39.467Z,99.90
2022-09-04T08:26:14.324Z,99.90
2022-09-04T08:29:01.238Z,99.90
2022-09-04T08:31:33.034Z,99.90
2022-09-04T08:34:30.121Z,99.90
2022-09-04T08:37:01.812Z,99.90
2022-09-04T08:39:38.255Z,99.90
2022-09-04T08:42:49.927Z,99.90
2022-09-04T08:46:09.439Z,99.90
2022-09-04T08:49:29.297Z,99.90
2022-09-04T08:52:33.875Z,99.90
2022-09-04T08:55:51.736Z,99.60
2022-09-04T08:59:01.394Z,99.90
2022-09-04T09:02:04.610Z,99.40
2022-09-04T09:05:43.074Z,99.80
2022-09-04T09:09:11.890Z,99.30
2022-09-04T09:12:41.037Z,99.60
2022-09-04T09:15:53.699Z,99.80
2022-09-04T09:18:40.522Z,99.00
2022-09-04T09:21:10.971Z,98.90
2022-09-04T09:23:46.060Z,98.50
2022-09-04T09:26:28.316Z,99.40
2022-09-04T09:29:41.866Z,98.90
2022-09-04T09:32:59.028Z,98.90
2022-09-04T09:36:24.452Z,97.60
2022-09-04T09:39:44.395Z,97.80
2022-09-04T09:43:03.403Z,97.60
2022-09-04T09:46:04.965Z,98.20
2022-09-04T09:49:13.875Z,96.70
2022-09-04T09:52:23.971Z,97.80
2022-09-04T09:55:18.183Z,96.50
2022-09-04T09:58:27.950Z,96.10
2022-09-04T10:01:08.480Z,96.80
2022-09-04T10:04:23.919Z,96.20
2022-09-04T10:07:42.678Z,95.00
2022-09-04T10:10:46.476Z,96.30
2022-09-04T10:13:39.455Z,95.70
2022-09-04T10:17:04.131Z,95.20
2022-09-04T10:20:17.368Z,94.50
2022-09-04T10:23:32.721Z,93.90
2022-09-04T10:26:58.275Z,93.70
2022-09-04T10:29:38.579Z,93.00
2022-09-04T10:32:35.654Z,93.90
2022-09-04T10:35:19.299Z,92.50
2022-09-04T10:38:12.992Z,92.30
2022-09-04T10:41:01.295Z,92.80
2022-09-04T10:43:50.537Z,91.70
2022-09-04T10:46:23.038Z,92.90
2022-09-04T10:49:21.369Z,92.30
2022-09-04T10:52:07.121Z,91.80
2022-09-04T10:55:03.647Z,92.70
2022-09-04T10:57:59.984Z,91.50
2022-09-04T11:00:28.864Z,91.70
2022-09-04T11:03:30.766Z,92.30
2022-09-04T11:06:39.124Z,91.60
2022-09-04T11:09:48.049Z,90.90
2022-09-04T11:12:50.958Z,90.50
2022-09-04T11:16:02.781Z,90.40
2022-09-04T11:19:10.510Z,91.90
2022-09-04T11:22:20.443Z,89.40
2022-09-04T11:25:47.670Z,89.80
2022-09-04T11:28:48.962Z,90.60
2022-09-04T11:31:36.646Z,91.70
2022-09-04T11:35:09.324Z,86.60
2022-09-04T11:38:08.114Z,86.00
2022-09-04T11:41:21.716Z,87.80
2022-09-04T11:44:41.816Z,88.40
2022-09-04T11:47:41.019Z,87.20
2022-09-04T11:50:19.548Z,89.80
2022-09-04T11:53:19.649Z,89.20
2022-09-04T11:56:10.255Z,86.90
2022-09-04T12:01:35.703Z,90.20
2022-09-04T12:04:30.806Z,86.50
2022-09-04T12:07:14.179Z,89.80
2022-09-04T12:10:24.883Z,85.80
2022-09-04T12:13:15.463Z,89.20
2022-09-04T12:16:31.156Z,88.00
2022-09-04T12:19:46.267Z,88.40
2022-09-04T12:22:46.504Z,85.20
2022-09-04T12:25:45.080Z,85.80
2022-09-04T12:28:44.522Z,84.00
2022-09-04T12:31:30.976Z,86.30
2022-09-04T12:34:46.532Z,84.20
2022-09-04T12:37:30.904Z,85.10
2022-09-04T12:40:34.603Z,84.50
2022-09-04T12:43:16.547Z,90.20
2022-09-04T12:45:48.999Z,85.30
2022-09-04T12:48:27.831Z,89.50
2022-09-04T12:51:00.693Z,86.60
2022-09-04T12:53:55.239Z,81.70
2022-09-04T12:56:29.586Z,82.90
2022-09-04T12:59:16.188Z,86.20
2022-09-04T13:01:52.983Z,85.90
2022-09-04T13:04:27.380Z,85.00
2022-09-04T13:07:16.126Z,85.20
2022-09-04T13:09:53.543Z,83.90
2022-09-04T13:12:26.330Z,84.10
2022-09-04T13:15:19.967Z,82.80
2022-09-04T13:17:55.294Z,84.30
2022-09-04T13:20:30.379Z,84.80
2022-09-04T13:23:21.146Z,83.80
2022-09-04T13:26:11.876Z,84.50
2022-09-04T13:28:50.614Z,81.90
2022-09-04T13:31:46.134Z,85.00
2022-09-04T13:34:19.462Z,82.40
2022-09-04T13:36:55.328Z,85.80
2022-09-04T13:40:12.460Z,82.90
2022-09-04T13:43:15.530Z,83.40
2022-09-04T13:45:45.428Z,84.10
2022-09-04T13:48:13.535Z,82.60
2022-09-04T13:50:42.846Z,85.70
2022-09-04T13:53:16.660Z,81.90
2022-09-04T13:55:50.023Z,80.80
2022-09-04T13:58:20.395Z,81.70
2022-09-04T14:00:49.487Z,84.50
2022-09-04T14:03:25.607Z,79.90
2022-09-04T14:05:49.541Z,81.40
2022-09-04T14:08:18.371Z,80.30
2022-09-04T14:11:06.750Z,81.30
2022-09-04T14:13:59.283Z,80.10
2022-09-04T14:16:23.992Z,81.20
2022-09-04T14:19:15.679Z,84.10
2022-09-04T14:22:02.443Z,84.20
2022-09-04T14:24:32.994Z,82.90
2022-09-04T14:27:09.133Z,79.70
2022-09-04T14:29:47.094Z,78.60
2022-09-04T14:32:24.089Z,79.00
2022-09-04T14:35:02.390Z,80.20
2022-09-04T14:37:48.268Z,79.40
2022-09-04T14:40:17.408Z,79.00
2022-09-04T14:42:49.377Z,80.10
2022-09-04T14:45:55.694Z,78.90
2022-09-04T14:48:24.343Z,80.60
2022-09-04T14:50:51.770Z,77.50
2022-09-04T14:53:26.431Z,78.20
2022-09-04T14:56:23.315Z,80.20
2022-09-04T14:58:55.137Z,81.90
2022-09-04T15:01:21.428Z,80.50
2022-09-04T15:03:50.928Z,77.80
2022-09-04T15:06:22.550Z,79.60
2022-09-04T15:08:50.685Z,79.50
2022-09-04T15:11:31.679Z,81.10
2022-09-04T15:14:04.892Z,78.90
2022-09-04T15:16:46.680Z,79.80
2022-09-04T15:19:28.403Z,80.10
2022-09-04T15:21:58.799Z,78.30
2022-09-04T15:24:28.471Z,79.60
2022-09-04T15:27:00.036Z,79.00
2022-09-04T15:29:29.798Z,81.00
2022-09-04T15:32:01.132Z,79.40
2022-09-04T15:34:28.203Z,80.40
2022-09-04T15:36:52.267Z,81.40
2022-09-04T15:39:31.136Z,79.90
2022-09-04T15:41:54.856Z,80.30
2022-09-04T15:44:30.154Z,80.50
2022-09-04T15:47:12.662Z,80.70
2022-09-04T15:49:49.381Z,83.80
2022-09-04T15:52:31.137Z,81.60
2022-09-04T15:55:25.298Z,84.00
2022-09-04T15:57:58.531Z,81.70
2022-09-04T16:00:27.373Z,81.20
2022-09-04T16:02:59.076Z,81.60
2022-09-04T16:05:28.294Z,81.90
2022-09-04T16:08:03.863Z,82.50
2022-09-04T16:10:44.291Z,83.80
2022-09-04T16:13:32.889Z,84.70
2022-09-04T16:16:04.501Z,86.40
2022-09-04T16:18:46.026Z,82.80
2022-09-04T16:21:22.545Z,84.60
2022-09-04T16:23:47.003Z,84.50
2022-09-04T16:26:13.875Z,83.90
2022-09-04T16:28:45.578Z,86.60
2022-09-04T16:31:14.901Z,84.50
2022-09-04T16:33:47.126Z,85.70
2022-09-04T16:36:16.911Z,83.80
2022-09-04T16:38:48.739Z,84.40
2022-09-04T16:41:18.039Z,84.40
2022-09-04T16:43:42.560Z,86.10
2022-09-04T16:46:27.681Z,86.90
2022-09-04T16:48:57.936Z,86.40
2022-09-04T16:51:41.213Z,86.20
2022-09-04T16:54:11.872Z,87.60
2022-09-04T16:56:40.810Z,88.10
2022-09-04T16:59:21.774Z,89.00
2022-09-04T17:01:58.775Z,86.30
2022-09-04T17:04:45.723Z,87.80
2022-09-04T17:07:18.752Z,88.60
2022-09-04T17:09:54.695Z,87.50
2022-09-04T17:12:37.962Z,89.30
2022-09-04T17:15:17.226Z,89.70
2022-09-04T17:17:47.205Z,89.80
2022-09-04T17:20:20.336Z,88.40
2022-09-04T17:29:00.159Z,89.00
2022-09-04T17:29:08.246Z,89.30
2022-09-04T17:29:10.109Z,89.80
2022-09-04T17:31:45.287Z,90.70
2022-09-04T17:40:39.914Z,91.30
2022-09-04T17:40:41.465Z,90.60
2022-09-04T17:40:48.436Z,91.50
2022-09-04T17:43:21.541Z,92.20
2022-09-04T17:45:52.390Z,92.20
2022-09-04T17:48:24.127Z,92.80
2022-09-04T17:50:54.144Z,92.70
2022-09-04T17:53:29.785Z,93.20
2022-09-04T17:56:06.785Z,93.20
2022-09-04T17:58:36.866Z,93.70
2022-09-04T18:01:14.255Z,94.20
2022-09-04T18:04:04.192Z,94.00
2022-09-04T18:06:49.568Z,94.10
2022-09-04T18:09:18.523Z,94.60
2022-09-04T18:12:03.353Z,94.90
2022-09-04T18:14:37.399Z,95.00
2022-09-04T18:17:12.563Z,95.20
2022-09-04T18:19:46.502Z,95.50
2022-09-04T18:22:33.626Z,95.60
2022-09-04T18:25:16.547Z,95.40
2022-09-04T18:28:11.812Z,96.10
2022-09-04T18:37:05.818Z,96.40
2022-09-04T18:37:19.826Z,96.70
2022-09-04T18:37:25.660Z,96.90
2022-09-04T18:39:33.555Z,97.20
2022-09-04T18:50:20.701Z,97.20
2022-09-04T18:50:47.145Z,97.60
2022-09-04T18:50:53.245Z,97.20
2022-09-04T18:51:18.821Z,97.70
2022-09-04T18:53:47.036Z,98.40
2022-09-04T18:56:20.823Z,98.50
2022-09-04T18:58:55.407Z,98.30
2022-09-04T19:01:27.175Z,98.40
2022-09-04T19:03:57.373Z,98.80
2022-09-04T19:06:34.026Z,98.70
2022-09-04T19:09:03.578Z,98.70
2022-09-04T19:11:33.390Z,98.90
2022-09-04T19:14:10.106Z,99.00
2022-09-04T19:16:42.251Z,99.10
2022-09-04T19:19:17.787Z,99.10
2022-09-04T19:21:57.921Z,99.20
2022-09-04T19:24:34.687Z,99.60
2022-09-04T19:27:26.503Z,99.90
2022-09-04T19:30:05.195Z,99.90
2022-09-04T19:32:59.891Z,99.90
2022-09-04T19:35:36.923Z,99.90
2022-09-04T19:44:10.164Z,99.90
2022-09-04T19:46:04.665Z,99.90
2022-09-04T19:46:13.658Z,99.90
2022-09-04T19:46:47.612Z,99.90
2022-09-04T19:50:32.717Z,99.90
2022-09-04T19:53:31.575Z,99.90
2022-09-04T19:55:23.506Z,99.90
2022-09-04T19:57:48.037Z,99.90
2022-09-04T20:00:42.377Z,99.90
2022-09-04T20:03:24.938Z,99.90
2022-09-04T20:05:58.277Z,99.90
2022-09-04T20:08:36.326Z,99.90
2022-09-04T20:11:05.115Z,99.90
2022-09-04T20:13:34.834Z,99.90
2022-09-04T20:16:07.843Z,99.90
2022-09-04T20:18:39.617Z,99.90
2022-09-04T20:21:16.296Z,99.90
2022-09-04T20:23:45.038Z,99.90
2022-09-04T20:26:18.449Z,99.90
2022-09-04T20:28:54.370Z,99.90
2022-09-04T20:31:46.774Z,99.90
2022-09-04T20:34:27.978Z,99.90
2022-09-04T20:37:00.501Z,99.90
2022-09-04T20:39:33.428Z,99.90
2022-09-04T20:42:04.247Z,99.90
2022-09-04T20:44:44.506Z,99.90
2022-09-04T20:52:40.516Z,99.90
2022-09-04T20:52:59.376Z,99.90
2022-09-04T20:53:24.037Z,99.90
2022-09-04T20:56:10.762Z,99.90
2022-09-04T21:03:07.239Z,99.90
2022-09-04T21:03:20.093Z,99.90
2022-09-04T21:04:53.107Z,99.90
2022-09-04T21:07:28.631Z,99.90
2022-09-04T21:10:09.986Z,99.90
2022-09-04T21:12:39.495Z,99.90
2022-09-04T21:15:16.015Z,99.90
2022-09-04T21:18:05.176Z,99.90
2022-09-04T21:21:05.358Z,99.90
2022-09-04T21:24:06.954Z,99.90
2022-09-04T21:27:01.706Z,99.90
2022-09-04T21:29:51.035Z,99.90
2022-09-04T21:32:37.506Z,99.90
2022-09-04T21:35:11.936Z,99.90
2022-09-04T21:37:48.195Z,99.90
2022-09-04T21:41:01.020Z,99.90
2022-09-04T21:44:02.473Z,99.90
2022-09-04T21:47:08.393Z,99.90
2022-09-04T21:50:31.378Z,99.90
2022-09-04T21:53:33.254Z,99.90
2022-09-04T22:02:30.401Z,99.90
2022-09-04T22:02:42.619Z,99.90
2022-09-04T22:02:51.402Z,99.90
2022-09-04T22:05:25.199Z,99.90
2022-09-04T22:09:09.839Z,99.90
2022-09-04T22:13:40.213Z,99.90
2022-09-04T22:13:52.259Z,99.90
2022-09-04T22:16:33.082Z,99.90
2022-09-04T22:19:17.446Z,99.90
2022-09-04T22:22:03.415Z,99.90
2022-09-04T22:24:50.825Z,99.90
2022-09-04T22:28:08.547Z,99.90
2022-09-04T22:30:53.335Z,99.90
2022-09-04T22:34:15.432Z,99.90
2022-09-04T22:37:17.691Z,99.90
2022-09-04T22:40:12.745Z,99.90
2022-09-04T22:42:48.304Z,99.90
2022-09-04T22:45:43.623Z,99.90
2022-09-04T22:49:12.624Z,99.90
2022-09-04T22:52:10.043Z,99.90
2022-09-04T22:54:52.653Z,99.90
2022-09-04T22:57:28.358Z,99.90
2022-09-04T23:00:11.638Z,99.90
2022-09-04T23:03:09.548Z,99.90
2022-09-04T23:06:33.795Z,99.90
2022-09-04T23:13:49.989Z,99.90
2022-09-04T23:13:57.108Z,99.90
2022-09-04T23:15:58.097Z,99.90
2022-09-04T23:23:18.719Z,99.90
2022-09-04T23:26:35.202Z,99.90
2022-09-04T23:26:49.020Z,99.90
2022-09-04T23:27:59.351Z,99.90
2022-09-04T23:30:26.579Z,99.90
2022-09-04T23:33:58.611Z,99.90
2022-09-04T23:37:12.695Z,99.90
2022-09-04T23:40:28.223Z,99.90
2022-09-04T23:43:49.360Z,99.90
2022-09-04T23:46:36.192Z,99.90
2022-09-04T23:49:36.669Z,99.90
2022-09-04T23:52:07.936Z,99.90
2022-09-04T23:54:57.834Z,99.90
2022-09-04T23:57:30.150Z,99.90
